sensor_id;sensor_type;location;lat;lon;timestamp;P1;durP1;ratioP1;P2;durP2;ratioP2
67514;SDS011;60646;55.802;37.032;2022-12-07T00:00:28;1.00;;;0.90;;
67514;SDS011;60646;55.802;37.032;2022-12-07T00:02:54;1.60;;;0.80;;
67514;SDS011;60646;55.802;37.032;2022-12-07T00:05:19;1.35;;;0.90;;
67514;SDS011;60646;55.802;37.032;2022-12-07T00:07:45;3.08;;;0.98;;
67514;SDS011;60646;55.802;37.032;2022-12-07T00:10:11;1.63;;;0.98;;
67514;SDS011;60646;55.802;37.032;2022-12-07T00:12:38;2.70;;;1.08;;
67514;SDS011;60646;55.802;37.032;2022-12-07T00:15:04;2.70;;;1.20;;
67514;SDS011;60646;55.802;37.032;2022-12-07T00:17:30;2.35;;;1.30;;
67514;SDS011;60646;55.802;37.032;2022-12-07T00:19:56;1.23;;;0.80;;
67514;SDS011;60646;55.802;37.032;2022-12-07T00:22:21;2.53;;;1.10;;
67514;SDS011;60646;55.802;37.032;2022-12-07T00:24:47;2.17;;;0.88;;
67514;SDS011;60646;55.802;37.032;2022-12-07T00:27:13;2.38;;;1.15;;
67514;SDS011;60646;55.802;37.032;2022-12-07T00:29:38;2.47;;;0.80;;
67514;SDS011;60646;55.802;37.032;2022-12-07T00:32:04;2.05;;;1.10;;
67514;SDS011;60646;55.802;37.032;2022-12-07T00:34:30;3.35;;;1.15;;
67514;SDS011;60646;55.802;37.032;2022-12-07T00:36:56;2.38;;;1.00;;
67514;SDS011;60646;55.802;37.032;2022-12-07T00:39:21;2.72;;;1.10;;
67514;SDS011;60646;55.802;37.032;2022-12-07T00:41:47;2.67;;;0.90;;
67514;SDS011;60646;55.802;37.032;2022-12-07T00:44:13;2.25;;;1.10;;
67514;SDS011;60646;55.802;37.032;2022-12-07T00:46:38;3.65;;;1.30;;
67514;SDS011;60646;55.802;37.032;2022-12-07T00:49:04;3.00;;;1.00;;
67514;SDS011;60646;55.802;37.032;2022-12-07T00:51:30;2.13;;;1.05;;
67514;SDS011;60646;55.802;37.032;2022-12-07T00:53:56;1.65;;;0.90;;
67514;SDS011;60646;55.802;37.032;2022-12-07T00:56:25;3.42;;;1.30;;
67514;SDS011;60646;55.802;37.032;2022-12-07T00:58:53;2.28;;;1.40;;
67514;SDS011;60646;55.802;37.032;2022-12-07T01:01:21;2.17;;;0.98;;
67514;SDS011;60646;55.802;37.032;2022-12-07T01:03:47;3.17;;;1.10;;
67514;SDS011;60646;55.802;37.032;2022-12-07T01:06:13;2.58;;;0.95;;
67514;SDS011;60646;55.802;37.032;2022-12-07T01:08:43;1.92;;;0.93;;
67514;SDS011;60646;55.802;37.032;2022-12-07T01:11:11;3.83;;;1.02;;
67514;SDS011;60646;55.802;37.032;2022-12-07T01:13:40;1.35;;;0.90;;
67514;SDS011;60646;55.802;37.032;2022-12-07T01:16:07;1.42;;;1.00;;
67514;SDS011;60646;55.802;37.032;2022-12-07T01:18:35;1.67;;;0.90;;
67514;SDS011;60646;55.802;37.032;2022-12-07T01:21:02;1.15;;;0.73;;
67514;SDS011;60646;55.802;37.032;2022-12-07T01:23:48;1.67;;;1.30;;
67514;SDS011;60646;55.802;37.032;2022-12-07T01:26:16;1.05;;;0.82;;
67514;SDS011;60646;55.802;37.032;2022-12-07T01:28:44;1.88;;;1.35;;
67514;SDS011;60646;55.802;37.032;2022-12-07T01:31:11;2.38;;;0.98;;
67514;SDS011;60646;55.802;37.032;2022-12-07T01:33:41;1.85;;;1.02;;
67514;SDS011;60646;55.802;37.032;2022-12-07T01:38:42;1.80;;;1.02;;
67514;SDS011;60646;55.802;37.032;2022-12-07T01:41:08;1.92;;;1.00;;
67514;SDS011;60646;55.802;37.032;2022-12-07T01:43:34;3.22;;;1.20;;
67514;SDS011;60646;55.802;37.032;2022-12-07T01:46:01;1.70;;;0.90;;
67514;SDS011;60646;55.802;37.032;2022-12-07T01:48:36;2.35;;;1.08;;
67514;SDS011;60646;55.802;37.032;2022-12-07T01:51:07;1.67;;;0.90;;
67514;SDS011;60646;55.802;37.032;2022-12-07T01:53:36;1.80;;;1.05;;
67514;SDS011;60646;55.802;37.032;2022-12-07T01:56:05;4.43;;;1.05;;
67514;SDS011;60646;55.802;37.032;2022-12-07T01:58:33;2.15;;;1.20;;
67514;SDS011;60646;55.802;37.032;2022-12-07T02:00:59;1.98;;;0.77;;
67514;SDS011;60646;55.802;37.032;2022-12-07T02:03:31;1.83;;;1.02;;
67514;SDS011;60646;55.802;37.032;2022-12-07T02:06:02;2.30;;;1.27;;
67514;SDS011;60646;55.802;37.032;2022-12-07T02:08:28;2.00;;;1.15;;
67514;SDS011;60646;55.802;37.032;2022-12-07T02:10:54;0.93;;;0.75;;
67514;SDS011;60646;55.802;37.032;2022-12-07T02:13:25;1.48;;;0.82;;
67514;SDS011;60646;55.802;37.032;2022-12-07T02:26:44;2.17;;;1.13;;
67514;SDS011;60646;55.802;37.032;2022-12-07T02:29:23;2.42;;;1.05;;
67514;SDS011;60646;55.802;37.032;2022-12-07T02:35:06;3.25;;;1.30;;
67514;SDS011;60646;55.802;37.032;2022-12-07T02:37:47;2.90;;;1.20;;
67514;SDS011;60646;55.802;37.032;2022-12-07T02:45:51;5.47;;;1.20;;
67514;SDS011;60646;55.802;37.032;2022-12-07T02:48:20;3.28;;;0.98;;
67514;SDS011;60646;55.802;37.032;2022-12-07T02:50:50;1.92;;;1.00;;
67514;SDS011;60646;55.802;37.032;2022-12-07T02:53:34;4.05;;;1.10;;
67514;SDS011;60646;55.802;37.032;2022-12-07T02:56:26;2.45;;;0.95;;
67514;SDS011;60646;55.802;37.032;2022-12-07T02:59:02;2.70;;;1.38;;
67514;SDS011;60646;55.802;37.032;2022-12-07T03:01:46;4.55;;;1.10;;
67514;SDS011;60646;55.802;37.032;2022-12-07T03:10:20;2.28;;;1.23;;
67514;SDS011;60646;55.802;37.032;2022-12-07T03:13:02;3.28;;;1.13;;
67514;SDS011;60646;55.802;37.032;2022-12-07T03:18:13;1.23;;;0.90;;
67514;SDS011;60646;55.802;37.032;2022-12-07T03:20:43;2.67;;;1.67;;
67514;SDS011;60646;55.802;37.032;2022-12-07T03:23:12;2.20;;;1.05;;
67514;SDS011;60646;55.802;37.032;2022-12-07T03:25:41;2.40;;;1.08;;
67514;SDS011;60646;55.802;37.032;2022-12-07T03:28:12;1.48;;;1.10;;
67514;SDS011;60646;55.802;37.032;2022-12-07T03:30:46;4.80;;;1.27;;
67514;SDS011;60646;55.802;37.032;2022-12-07T03:33:24;1.80;;;1.08;;
67514;SDS011;60646;55.802;37.032;2022-12-07T03:38:28;1.30;;;1.20;;
67514;SDS011;60646;55.802;37.032;2022-12-07T03:43:35;2.42;;;1.13;;
67514;SDS011;60646;55.802;37.032;2022-12-07T03:51:30;1.88;;;1.23;;
67514;SDS011;60646;55.802;37.032;2022-12-07T03:54:10;3.13;;;0.98;;
67514;SDS011;60646;55.802;37.032;2022-12-07T03:56:43;3.03;;;1.35;;
67514;SDS011;60646;55.802;37.032;2022-12-07T03:59:11;3.38;;;1.40;;
67514;SDS011;60646;55.802;37.032;2022-12-07T04:01:38;2.97;;;1.35;;
67514;SDS011;60646;55.802;37.032;2022-12-07T04:04:07;2.50;;;1.30;;
67514;SDS011;60646;55.802;37.032;2022-12-07T04:06:33;2.58;;;1.13;;
67514;SDS011;60646;55.802;37.032;2022-12-07T04:08:59;5.55;;;1.63;;
67514;SDS011;60646;55.802;37.032;2022-12-07T04:11:24;2.42;;;1.33;;
67514;SDS011;60646;55.802;37.032;2022-12-07T04:13:50;4.97;;;1.50;;
67514;SDS011;60646;55.802;37.032;2022-12-07T04:16:34;2.47;;;1.23;;
67514;SDS011;60646;55.802;37.032;2022-12-07T04:19:00;5.03;;;1.95;;
67514;SDS011;60646;55.802;37.032;2022-12-07T04:21:26;3.45;;;1.33;;
67514;SDS011;60646;55.802;37.032;2022-12-07T04:23:52;5.55;;;1.67;;
67514;SDS011;60646;55.802;37.032;2022-12-07T04:26:17;3.90;;;1.52;;
67514;SDS011;60646;55.802;37.032;2022-12-07T04:28:43;3.78;;;1.75;;
67514;SDS011;60646;55.802;37.032;2022-12-07T04:31:09;3.67;;;1.50;;
67514;SDS011;60646;55.802;37.032;2022-12-07T04:33:35;4.07;;;1.42;;
67514;SDS011;60646;55.802;37.032;2022-12-07T04:36:00;4.30;;;1.60;;
67514;SDS011;60646;55.802;37.032;2022-12-07T04:38:26;1.63;;;1.05;;
67514;SDS011;60646;55.802;37.032;2022-12-07T04:40:52;2.45;;;1.17;;
67514;SDS011;60646;55.802;37.032;2022-12-07T04:43:17;3.15;;;1.40;;
67514;SDS011;60646;55.802;37.032;2022-12-07T04:45:47;3.08;;;1.50;;
67514;SDS011;60646;55.802;37.032;2022-12-07T04:48:13;4.45;;;1.33;;
67514;SDS011;60646;55.802;37.032;2022-12-07T04:50:39;4.18;;;1.52;;
67514;SDS011;60646;55.802;37.032;2022-12-07T04:53:05;3.65;;;1.50;;
67514;SDS011;60646;55.802;37.032;2022-12-07T04:55:34;2.17;;;1.20;;
67514;SDS011;60646;55.802;37.032;2022-12-07T04:57:59;4.75;;;1.30;;
67514;SDS011;60646;55.802;37.032;2022-12-07T05:00:25;2.50;;;1.13;;
67514;SDS011;60646;55.802;37.032;2022-12-07T05:02:51;2.70;;;1.02;;
67514;SDS011;60646;55.802;37.032;2022-12-07T05:05:17;4.13;;;1.60;;
67514;SDS011;60646;55.802;37.032;2022-12-07T05:07:42;4.53;;;1.60;;
67514;SDS011;60646;55.802;37.032;2022-12-07T05:10:08;4.00;;;1.58;;
67514;SDS011;60646;55.802;37.032;2022-12-07T05:12:34;4.28;;;1.50;;
67514;SDS011;60646;55.802;37.032;2022-12-07T05:15:00;2.95;;;1.13;;
67514;SDS011;60646;55.802;37.032;2022-12-07T05:17:26;5.65;;;2.17;;
67514;SDS011;60646;55.802;37.032;2022-12-07T05:19:54;10.90;;;4.32;;
67514;SDS011;60646;55.802;37.032;2022-12-07T05:22:20;10.57;;;3.42;;
67514;SDS011;60646;55.802;37.032;2022-12-07T05:24:46;5.82;;;2.55;;
67514;SDS011;60646;55.802;37.032;2022-12-07T05:27:12;4.95;;;2.60;;
67514;SDS011;60646;55.802;37.032;2022-12-07T05:29:38;6.35;;;2.88;;
67514;SDS011;60646;55.802;37.032;2022-12-07T05:32:04;4.68;;;2.13;;
67514;SDS011;60646;55.802;37.032;2022-12-07T05:34:29;5.05;;;2.13;;
67514;SDS011;60646;55.802;37.032;2022-12-07T05:36:55;5.22;;;1.73;;
67514;SDS011;60646;55.802;37.032;2022-12-07T05:39:21;2.95;;;1.60;;
67514;SDS011;60646;55.802;37.032;2022-12-07T05:41:46;2.55;;;1.40;;
67514;SDS011;60646;55.802;37.032;2022-12-07T05:44:31;2.40;;;1.48;;
67514;SDS011;60646;55.802;37.032;2022-12-07T05:46:57;3.35;;;1.67;;
67514;SDS011;60646;55.802;37.032;2022-12-07T05:49:22;2.10;;;1.45;;
67514;SDS011;60646;55.802;37.032;2022-12-07T05:51:48;4.07;;;1.33;;
67514;SDS011;60646;55.802;37.032;2022-12-07T05:54:14;2.78;;;1.45;;
67514;SDS011;60646;55.802;37.032;2022-12-07T05:56:40;3.75;;;1.50;;
67514;SDS011;60646;55.802;37.032;2022-12-07T05:59:14;2.63;;;1.40;;
67514;SDS011;60646;55.802;37.032;2022-12-07T06:01:54;3.88;;;1.17;;
67514;SDS011;60646;55.802;37.032;2022-12-07T06:04:25;2.47;;;1.50;;
67514;SDS011;60646;55.802;37.032;2022-12-07T06:06:52;2.75;;;1.27;;
67514;SDS011;60646;55.802;37.032;2022-12-07T06:09:19;3.15;;;1.48;;
67514;SDS011;60646;55.802;37.032;2022-12-07T06:11:46;2.38;;;1.15;;
67514;SDS011;60646;55.802;37.032;2022-12-07T06:14:30;2.35;;;1.30;;
67514;SDS011;60646;55.802;37.032;2022-12-07T06:16:56;3.55;;;1.35;;
67514;SDS011;60646;55.802;37.032;2022-12-07T06:19:22;3.38;;;1.40;;
67514;SDS011;60646;55.802;37.032;2022-12-07T06:21:54;3.92;;;1.80;;
67514;SDS011;60646;55.802;37.032;2022-12-07T06:24:20;3.13;;;1.65;;
67514;SDS011;60646;55.802;37.032;2022-12-07T06:26:46;2.70;;;1.27;;
67514;SDS011;60646;55.802;37.032;2022-12-07T06:29:12;3.95;;;1.40;;
67514;SDS011;60646;55.802;37.032;2022-12-07T06:31:39;4.05;;;1.48;;
67514;SDS011;60646;55.802;37.032;2022-12-07T06:34:06;3.75;;;1.70;;
67514;SDS011;60646;55.802;37.032;2022-12-07T06:36:40;4.13;;;1.52;;
67514;SDS011;60646;55.802;37.032;2022-12-07T06:39:40;2.83;;;1.55;;
67514;SDS011;60646;55.802;37.032;2022-12-07T06:42:06;3.45;;;1.52;;
67514;SDS011;60646;55.802;37.032;2022-12-07T06:44:32;3.47;;;1.70;;
67514;SDS011;60646;55.802;37.032;2022-12-07T06:46:58;2.05;;;1.23;;
67514;SDS011;60646;55.802;37.032;2022-12-07T06:49:23;2.50;;;1.15;;
67514;SDS011;60646;55.802;37.032;2022-12-07T06:51:49;3.08;;;1.27;;
67514;SDS011;60646;55.802;37.032;2022-12-07T06:54:16;3.60;;;1.83;;
67514;SDS011;60646;55.802;37.032;2022-12-07T06:56:42;3.55;;;1.33;;
67514;SDS011;60646;55.802;37.032;2022-12-07T06:59:08;4.70;;;2.13;;
67514;SDS011;60646;55.802;37.032;2022-12-07T07:01:34;4.65;;;1.77;;
67514;SDS011;60646;55.802;37.032;2022-12-07T07:04:01;3.42;;;1.67;;
67514;SDS011;60646;55.802;37.032;2022-12-07T07:06:27;2.65;;;1.42;;
67514;SDS011;60646;55.802;37.032;2022-12-07T07:08:53;2.65;;;1.42;;
67514;SDS011;60646;55.802;37.032;2022-12-07T07:11:19;3.05;;;1.42;;
67514;SDS011;60646;55.802;37.032;2022-12-07T07:13:44;6.65;;;2.17;;
67514;SDS011;60646;55.802;37.032;2022-12-07T07:16:11;3.28;;;1.90;;
67514;SDS011;60646;55.802;37.032;2022-12-07T07:18:36;6.38;;;2.13;;
67514;SDS011;60646;55.802;37.032;2022-12-07T07:21:02;2.60;;;1.30;;
67514;SDS011;60646;55.802;37.032;2022-12-07T07:23:29;3.08;;;1.33;;
67514;SDS011;60646;55.802;37.032;2022-12-07T07:25:55;3.10;;;1.75;;
67514;SDS011;60646;55.802;37.032;2022-12-07T07:28:20;3.42;;;1.63;;
67514;SDS011;60646;55.802;37.032;2022-12-07T07:30:47;6.28;;;1.92;;
67514;SDS011;60646;55.802;37.032;2022-12-07T07:33:14;5.03;;;1.65;;
67514;SDS011;60646;55.802;37.032;2022-12-07T07:35:40;3.58;;;1.45;;
67514;SDS011;60646;55.802;37.032;2022-12-07T07:38:06;3.70;;;1.80;;
67514;SDS011;60646;55.802;37.032;2022-12-07T07:40:41;3.33;;;1.50;;
67514;SDS011;60646;55.802;37.032;2022-12-07T07:43:08;3.40;;;1.63;;
67514;SDS011;60646;55.802;37.032;2022-12-07T07:45:34;2.47;;;1.40;;
67514;SDS011;60646;55.802;37.032;2022-12-07T07:48:00;3.50;;;1.65;;
67514;SDS011;60646;55.802;37.032;2022-12-07T07:50:26;4.60;;;1.77;;
67514;SDS011;60646;55.802;37.032;2022-12-07T07:52:51;5.20;;;1.83;;
67514;SDS011;60646;55.802;37.032;2022-12-07T07:55:17;5.93;;;1.88;;
67514;SDS011;60646;55.802;37.032;2022-12-07T07:57:43;2.72;;;1.40;;
67514;SDS011;60646;55.802;37.032;2022-12-07T08:00:13;3.25;;;1.67;;
67514;SDS011;60646;55.802;37.032;2022-12-07T08:02:40;3.75;;;2.00;;
67514;SDS011;60646;55.802;37.032;2022-12-07T08:05:08;3.65;;;1.80;;
67514;SDS011;60646;55.802;37.032;2022-12-07T08:07:33;3.20;;;1.52;;
67514;SDS011;60646;55.802;37.032;2022-12-07T08:09:59;4.47;;;2.10;;
67514;SDS011;60646;55.802;37.032;2022-12-07T08:12:25;5.03;;;2.20;;
67514;SDS011;60646;55.802;37.032;2022-12-07T08:14:51;4.15;;;1.80;;
67514;SDS011;60646;55.802;37.032;2022-12-07T08:17:17;4.80;;;2.20;;
67514;SDS011;60646;55.802;37.032;2022-12-07T08:19:43;4.18;;;1.90;;
67514;SDS011;60646;55.802;37.032;2022-12-07T08:22:08;3.50;;;1.33;;
67514;SDS011;60646;55.802;37.032;2022-12-07T08:24:35;3.50;;;2.05;;
67514;SDS011;60646;55.802;37.032;2022-12-07T08:27:01;5.55;;;1.90;;
67514;SDS011;60646;55.802;37.032;2022-12-07T08:29:28;5.93;;;2.20;;
67514;SDS011;60646;55.802;37.032;2022-12-07T08:31:54;5.55;;;2.00;;
67514;SDS011;60646;55.802;37.032;2022-12-07T08:34:20;5.40;;;1.98;;
67514;SDS011;60646;55.802;37.032;2022-12-07T08:36:46;5.47;;;2.28;;
67514;SDS011;60646;55.802;37.032;2022-12-07T08:39:11;5.68;;;2.00;;
67514;SDS011;60646;55.802;37.032;2022-12-07T08:41:37;4.25;;;1.80;;
67514;SDS011;60646;55.802;37.032;2022-12-07T08:44:03;7.00;;;1.83;;
67514;SDS011;60646;55.802;37.032;2022-12-07T08:49:16;4.43;;;2.05;;
67514;SDS011;60646;55.802;37.032;2022-12-07T08:51:45;5.05;;;2.10;;
67514;SDS011;60646;55.802;37.032;2022-12-07T08:54:13;4.80;;;1.90;;
67514;SDS011;60646;55.802;37.032;2022-12-07T08:56:41;5.05;;;2.17;;
67514;SDS011;60646;55.802;37.032;2022-12-07T08:59:09;3.65;;;1.67;;
67514;SDS011;60646;55.802;37.032;2022-12-07T09:01:35;3.78;;;2.00;;
67514;SDS011;60646;55.802;37.032;2022-12-07T09:04:01;5.65;;;2.17;;
67514;SDS011;60646;55.802;37.032;2022-12-07T09:06:27;5.15;;;1.75;;
67514;SDS011;60646;55.802;37.032;2022-12-07T09:08:53;8.13;;;2.67;;
67514;SDS011;60646;55.802;37.032;2022-12-07T09:11:23;4.93;;;1.92;;
67514;SDS011;60646;55.802;37.032;2022-12-07T09:13:48;3.13;;;1.70;;
67514;SDS011;60646;55.802;37.032;2022-12-07T09:16:14;4.22;;;2.08;;
67514;SDS011;60646;55.802;37.032;2022-12-07T09:18:40;4.38;;;2.10;;
67514;SDS011;60646;55.802;37.032;2022-12-07T09:21:07;4.82;;;2.10;;
67514;SDS011;60646;55.802;37.032;2022-12-07T09:23:32;3.42;;;1.50;;
67514;SDS011;60646;55.802;37.032;2022-12-07T09:25:59;5.10;;;1.83;;
67514;SDS011;60646;55.802;37.032;2022-12-07T09:28:26;3.60;;;2.03;;
67514;SDS011;60646;55.802;37.032;2022-12-07T09:30:51;3.83;;;1.88;;
67514;SDS011;60646;55.802;37.032;2022-12-07T09:33:17;5.97;;;1.80;;
67514;SDS011;60646;55.802;37.032;2022-12-07T09:35:47;5.43;;;2.22;;
67514;SDS011;60646;55.802;37.032;2022-12-07T09:38:14;3.75;;;1.83;;
67514;SDS011;60646;55.802;37.032;2022-12-07T09:40:40;5.70;;;2.20;;
67514;SDS011;60646;55.802;37.032;2022-12-07T09:43:13;6.43;;;1.80;;
67514;SDS011;60646;55.802;37.032;2022-12-07T09:45:44;4.70;;;2.13;;
67514;SDS011;60646;55.802;37.032;2022-12-07T09:50:58;4.53;;;1.70;;
67514;SDS011;60646;55.802;37.032;2022-12-07T09:53:36;7.82;;;2.10;;
67514;SDS011;60646;55.802;37.032;2022-12-07T09:56:06;5.22;;;2.05;;
67514;SDS011;60646;55.802;37.032;2022-12-07T09:59:12;3.88;;;1.67;;
67514;SDS011;60646;55.802;37.032;2022-12-07T10:01:42;5.15;;;1.75;;
67514;SDS011;60646;55.802;37.032;2022-12-07T10:04:12;5.53;;;1.80;;
67514;SDS011;60646;55.802;37.032;2022-12-07T10:06:41;7.57;;;2.25;;
67514;SDS011;60646;55.802;37.032;2022-12-07T10:09:15;3.40;;;1.80;;
67514;SDS011;60646;55.802;37.032;2022-12-07T10:14:53;4.78;;;1.77;;
67514;SDS011;60646;55.802;37.032;2022-12-07T10:17:40;4.22;;;2.13;;
67514;SDS011;60646;55.802;37.032;2022-12-07T10:25:25;4.78;;;1.77;;
67514;SDS011;60646;55.802;37.032;2022-12-07T10:27:57;3.70;;;1.90;;
67514;SDS011;60646;55.802;37.032;2022-12-07T10:30:25;4.60;;;2.20;;
67514;SDS011;60646;55.802;37.032;2022-12-07T10:32:50;3.75;;;1.90;;
67514;SDS011;60646;55.802;37.032;2022-12-07T10:35:24;2.70;;;1.42;;
67514;SDS011;60646;55.802;37.032;2022-12-07T10:37:55;5.15;;;1.70;;
67514;SDS011;60646;55.802;37.032;2022-12-07T10:43:04;4.20;;;1.88;;
67514;SDS011;60646;55.802;37.032;2022-12-07T10:45:41;6.38;;;2.70;;
67514;SDS011;60646;55.802;37.032;2022-12-07T10:59:46;4.53;;;2.10;;
67514;SDS011;60646;55.802;37.032;2022-12-07T11:05:39;5.97;;;2.15;;
67514;SDS011;60646;55.802;37.032;2022-12-07T11:11:47;5.93;;;2.05;;
67514;SDS011;60646;55.802;37.032;2022-12-07T11:14:23;4.28;;;1.65;;
67514;SDS011;60646;55.802;37.032;2022-12-07T11:16:59;3.17;;;1.65;;
67514;SDS011;60646;55.802;37.032;2022-12-07T11:19:40;4.68;;;2.50;;
67514;SDS011;60646;55.802;37.032;2022-12-07T11:22:17;3.72;;;1.77;;
67514;SDS011;60646;55.802;37.032;2022-12-07T11:33:28;5.13;;;2.00;;
67514;SDS011;60646;55.802;37.032;2022-12-07T11:39:12;4.40;;;2.17;;
67514;SDS011;60646;55.802;37.032;2022-12-07T11:41:55;5.97;;;2.47;;
67514;SDS011;60646;55.802;37.032;2022-12-07T11:53:01;8.48;;;2.00;;
67514;SDS011;60646;55.802;37.032;2022-12-07T12:06:32;3.45;;;1.90;;
67514;SDS011;60646;55.802;37.032;2022-12-07T12:22:48;5.57;;;2.00;;
67514;SDS011;60646;55.802;37.032;2022-12-07T12:25:22;4.47;;;2.20;;
67514;SDS011;60646;55.802;37.032;2022-12-07T12:27:51;6.20;;;2.33;;
67514;SDS011;60646;55.802;37.032;2022-12-07T12:37:14;5.63;;;2.22;;
67514;SDS011;60646;55.802;37.032;2022-12-07T12:42:53;7.47;;;2.42;;
67514;SDS011;60646;55.802;37.032;2022-12-07T12:45:22;6.72;;;1.90;;
67514;SDS011;60646;55.802;37.032;2022-12-07T12:50:50;9.35;;;3.30;;
67514;SDS011;60646;55.802;37.032;2022-12-07T12:54:03;6.30;;;2.13;;
67514;SDS011;60646;55.802;37.032;2022-12-07T13:04:55;7.07;;;2.63;;
67514;SDS011;60646;55.802;37.032;2022-12-07T13:29:15;4.78;;;2.55;;
67514;SDS011;60646;55.802;37.032;2022-12-07T13:31:46;6.38;;;2.88;;
67514;SDS011;60646;55.802;37.032;2022-12-07T13:37:02;6.30;;;2.30;;
67514;SDS011;60646;55.802;37.032;2022-12-07T13:39:44;8.40;;;2.45;;
67514;SDS011;60646;55.802;37.032;2022-12-07T13:42:17;6.45;;;3.00;;
67514;SDS011;60646;55.802;37.032;2022-12-07T13:44:50;6.93;;;3.00;;
67514;SDS011;60646;55.802;37.032;2022-12-07T13:47:17;8.23;;;2.92;;
67514;SDS011;60646;55.802;37.032;2022-12-07T13:49:48;6.57;;;2.28;;
67514;SDS011;60646;55.802;37.032;2022-12-07T13:52:26;8.68;;;3.35;;
67514;SDS011;60646;55.802;37.032;2022-12-07T13:57:32;10.48;;;3.80;;
67514;SDS011;60646;55.802;37.032;2022-12-07T14:00:00;7.97;;;3.38;;
67514;SDS011;60646;55.802;37.032;2022-12-07T14:02:32;8.98;;;3.40;;
67514;SDS011;60646;55.802;37.032;2022-12-07T14:05:23;12.05;;;3.45;;
67514;SDS011;60646;55.802;37.032;2022-12-07T14:08:04;10.45;;;3.20;;
67514;SDS011;60646;55.802;37.032;2022-12-07T14:13:00;6.30;;;2.78;;
67514;SDS011;60646;55.802;37.032;2022-12-07T14:15:27;7.20;;;2.95;;
67514;SDS011;60646;55.802;37.032;2022-12-07T14:17:56;7.50;;;2.63;;
67514;SDS011;60646;55.802;37.032;2022-12-07T14:23:03;6.75;;;2.92;;
67514;SDS011;60646;55.802;37.032;2022-12-07T14:25:45;7.13;;;3.03;;
67514;SDS011;60646;55.802;37.032;2022-12-07T14:28:24;6.65;;;2.95;;
67514;SDS011;60646;55.802;37.032;2022-12-07T14:30:51;9.43;;;3.38;;
67514;SDS011;60646;55.802;37.032;2022-12-07T14:33:17;9.18;;;3.13;;
67514;SDS011;60646;55.802;37.032;2022-12-07T14:35:44;8.73;;;3.85;;
67514;SDS011;60646;55.802;37.032;2022-12-07T14:38:09;7.95;;;3.22;;
67514;SDS011;60646;55.802;37.032;2022-12-07T14:40:35;9.75;;;3.55;;
67514;SDS011;60646;55.802;37.032;2022-12-07T14:45:51;6.95;;;2.63;;
67514;SDS011;60646;55.802;37.032;2022-12-07T14:48:17;10.15;;;3.50;;
67514;SDS011;60646;55.802;37.032;2022-12-07T14:50:52;9.80;;;3.45;;
67514;SDS011;60646;55.802;37.032;2022-12-07T14:53:19;7.80;;;3.17;;
67514;SDS011;60646;55.802;37.032;2022-12-07T14:55:51;6.32;;;2.72;;
67514;SDS011;60646;55.802;37.032;2022-12-07T14:58:17;7.13;;;2.65;;
67514;SDS011;60646;55.802;37.032;2022-12-07T15:00:43;9.85;;;3.20;;
67514;SDS011;60646;55.802;37.032;2022-12-07T15:03:09;8.90;;;3.03;;
67514;SDS011;60646;55.802;37.032;2022-12-07T15:05:35;9.10;;;3.20;;
67514;SDS011;60646;55.802;37.032;2022-12-07T15:08:01;9.70;;;2.97;;
67514;SDS011;60646;55.802;37.032;2022-12-07T15:10:29;7.13;;;3.72;;
67514;SDS011;60646;55.802;37.032;2022-12-07T15:12:57;9.57;;;3.25;;
67514;SDS011;60646;55.802;37.032;2022-12-07T15:15:43;6.63;;;2.67;;
67514;SDS011;60646;55.802;37.032;2022-12-07T15:18:09;12.90;;;3.33;;
67514;SDS011;60646;55.802;37.032;2022-12-07T15:20:35;7.40;;;3.40;;
67514;SDS011;60646;55.802;37.032;2022-12-07T15:23:00;8.43;;;3.13;;
67514;SDS011;60646;55.802;37.032;2022-12-07T15:25:26;7.85;;;3.30;;
67514;SDS011;60646;55.802;37.032;2022-12-07T15:27:52;6.60;;;2.78;;
67514;SDS011;60646;55.802;37.032;2022-12-07T15:30:18;11.07;;;3.05;;
67514;SDS011;60646;55.802;37.032;2022-12-07T15:32:44;5.63;;;2.50;;
67514;SDS011;60646;55.802;37.032;2022-12-07T15:35:14;6.68;;;2.97;;
67514;SDS011;60646;55.802;37.032;2022-12-07T15:37:40;6.78;;;2.53;;
67514;SDS011;60646;55.802;37.032;2022-12-07T15:40:06;6.30;;;2.80;;
67514;SDS011;60646;55.802;37.032;2022-12-07T15:42:33;7.05;;;2.75;;
67514;SDS011;60646;55.802;37.032;2022-12-07T15:44:58;7.20;;;3.03;;
67514;SDS011;60646;55.802;37.032;2022-12-07T15:47:31;6.72;;;3.00;;
67514;SDS011;60646;55.802;37.032;2022-12-07T15:49:58;7.55;;;2.63;;
67514;SDS011;60646;55.802;37.032;2022-12-07T15:52:24;6.40;;;2.50;;
67514;SDS011;60646;55.802;37.032;2022-12-07T15:54:50;5.38;;;2.38;;
67514;SDS011;60646;55.802;37.032;2022-12-07T15:57:16;5.80;;;3.00;;
67514;SDS011;60646;55.802;37.032;2022-12-07T15:59:41;4.45;;;2.17;;
67514;SDS011;60646;55.802;37.032;2022-12-07T16:02:08;10.18;;;2.90;;
67514;SDS011;60646;55.802;37.032;2022-12-07T16:04:35;9.20;;;3.15;;
67514;SDS011;60646;55.802;37.032;2022-12-07T16:07:01;5.63;;;2.30;;
67514;SDS011;60646;55.802;37.032;2022-12-07T16:09:27;6.57;;;2.75;;
67514;SDS011;60646;55.802;37.032;2022-12-07T16:11:54;6.35;;;3.05;;
67514;SDS011;60646;55.802;37.032;2022-12-07T16:14:19;5.30;;;2.08;;
67514;SDS011;60646;55.802;37.032;2022-12-07T16:16:46;7.28;;;2.92;;
67514;SDS011;60646;55.802;37.032;2022-12-07T16:19:12;9.40;;;3.58;;
67514;SDS011;60646;55.802;37.032;2022-12-07T16:21:38;5.80;;;2.58;;
67514;SDS011;60646;55.802;37.032;2022-12-07T16:24:04;9.60;;;2.83;;
67514;SDS011;60646;55.802;37.032;2022-12-07T16:26:30;5.95;;;2.53;;
67514;SDS011;60646;55.802;37.032;2022-12-07T16:28:57;6.97;;;2.83;;
67514;SDS011;60646;55.802;37.032;2022-12-07T16:31:24;9.50;;;3.08;;
67514;SDS011;60646;55.802;37.032;2022-12-07T16:33:55;9.80;;;3.03;;
67514;SDS011;60646;55.802;37.032;2022-12-07T16:36:22;7.28;;;3.15;;
67514;SDS011;60646;55.802;37.032;2022-12-07T16:38:50;4.95;;;2.38;;
67514;SDS011;60646;55.802;37.032;2022-12-07T16:41:16;6.25;;;2.83;;
67514;SDS011;60646;55.802;37.032;2022-12-07T16:43:41;7.10;;;3.10;;
67514;SDS011;60646;55.802;37.032;2022-12-07T16:46:07;6.60;;;2.63;;
67514;SDS011;60646;55.802;37.032;2022-12-07T16:48:34;5.07;;;2.55;;
67514;SDS011;60646;55.802;37.032;2022-12-07T16:51:02;6.75;;;2.40;;
67514;SDS011;60646;55.802;37.032;2022-12-07T16:53:31;6.03;;;2.60;;
67514;SDS011;60646;55.802;37.032;2022-12-07T16:55:57;9.35;;;3.00;;
67514;SDS011;60646;55.802;37.032;2022-12-07T16:58:23;6.88;;;3.10;;
67514;SDS011;60646;55.802;37.032;2022-12-07T17:00:48;7.22;;;2.22;;
67514;SDS011;60646;55.802;37.032;2022-12-07T17:03:15;7.85;;;3.30;;
67514;SDS011;60646;55.802;37.032;2022-12-07T17:05:44;10.05;;;2.83;;
67514;SDS011;60646;55.802;37.032;2022-12-07T17:08:11;5.65;;;3.03;;
67514;SDS011;60646;55.802;37.032;2022-12-07T17:10:38;7.20;;;2.80;;
67514;SDS011;60646;55.802;37.032;2022-12-07T17:13:09;7.22;;;2.53;;
67514;SDS011;60646;55.802;37.032;2022-12-07T17:15:58;6.03;;;2.50;;
67514;SDS011;60646;55.802;37.032;2022-12-07T17:18:30;9.27;;;3.60;;
67514;SDS011;60646;55.802;37.032;2022-12-07T17:21:02;6.13;;;2.45;;
67514;SDS011;60646;55.802;37.032;2022-12-07T17:23:33;5.22;;;2.63;;
67514;SDS011;60646;55.802;37.032;2022-12-07T17:28:55;7.45;;;2.75;;
67514;SDS011;60646;55.802;37.032;2022-12-07T17:31:21;6.97;;;2.72;;
67514;SDS011;60646;55.802;37.032;2022-12-07T17:33:47;6.03;;;2.58;;
67514;SDS011;60646;55.802;37.032;2022-12-07T17:36:14;7.22;;;2.35;;
67514;SDS011;60646;55.802;37.032;2022-12-07T17:38:43;5.45;;;2.42;;
67514;SDS011;60646;55.802;37.032;2022-12-07T17:41:13;7.97;;;2.75;;
67514;SDS011;60646;55.802;37.032;2022-12-07T17:44:01;8.20;;;2.50;;